Map

Track Data

SID SEASON NUMBER BASIN SUBBASIN NAME ISO_TIME NATURE LAT LON WMO_WIND WMO_PRES WMO_AGENCY TRACK_TYPE DIST2LAND LANDFALL IFLAG USA_AGENCY USA_ATCF_ID USA_LAT USA_LON USA_RECORD USA_STATUS USA_WIND USA_PRES USA_SSHS USA_R34_NE USA_R34_SE USA_R34_SW USA_R34_NW USA_R50_NE USA_R50_SE USA_R50_SW USA_R50_NW USA_R64_NE USA_R64_SE USA_R64_SW USA_R64_NW USA_POCI USA_ROCI USA_RMW USA_EYE TOKYO_LAT TOKYO_LON TOKYO_GRADE TOKYO_WIND TOKYO_PRES TOKYO_R50_DIR TOKYO_R50_LONG TOKYO_R50_SHORT TOKYO_R30_DIR TOKYO_R30_LONG TOKYO_R30_SHORT TOKYO_LAND CMA_LAT CMA_LON CMA_CAT CMA_WIND CMA_PRES HKO_LAT HKO_LON HKO_CAT HKO_WIND HKO_PRES NEWDELHI_LAT NEWDELHI_LON NEWDELHI_GRADE NEWDELHI_WIND NEWDELHI_PRES NEWDELHI_CI NEWDELHI_DP NEWDELHI_POCI REUNION_LAT REUNION_LON REUNION_TYPE REUNION_WIND REUNION_PRES REUNION_TNUM REUNION_CI REUNION_RMW REUNION_R34_NE REUNION_R34_SE REUNION_R34_SW REUNION_R34_NW REUNION_R50_NE REUNION_R50_SE REUNION_R50_SW REUNION_R50_NW REUNION_R64_NE REUNION_R64_SE REUNION_R64_SW REUNION_R64_NW BOM_LAT BOM_LON BOM_TYPE BOM_WIND BOM_PRES BOM_TNUM BOM_CI BOM_RMW BOM_R34_NE BOM_R34_SE BOM_R34_SW BOM_R34_NW BOM_R50_NE BOM_R50_SE BOM_R50_SW BOM_R50_NW BOM_R64_NE BOM_R64_SE BOM_R64_SW BOM_R64_NW BOM_ROCI BOM_POCI BOM_EYE BOM_POS_METHOD BOM_PRES_METHOD NADI_LAT NADI_LON NADI_CAT NADI_WIND NADI_PRES WELLINGTON_LAT WELLINGTON_LON WELLINGTON_WIND WELLINGTON_PRES DS824_LAT DS824_LON DS824_STAGE DS824_WIND DS824_PRES TD9636_LAT TD9636_LON TD9636_STAGE TD9636_WIND TD9636_PRES TD9635_LAT TD9635_LON TD9635_WIND TD9635_PRES TD9635_ROCI NEUMANN_LAT NEUMANN_LON NEUMANN_CLASS NEUMANN_WIND NEUMANN_PRES MLC_LAT MLC_LON MLC_CLASS MLC_WIND MLC_PRES USA_GUST BOM_GUST BOM_GUST_PER REUNION_GUST REUNION_GUST_PER USA_SEAHGT USA_SEARAD_NE USA_SEARAD_SE USA_SEARAD_SW USA_SEARAD_NW STORM_SPEED STORM_DIR
1970274N15306 1970 125 NA NA NOT_NAMED 1970-09-30 12:00:00 TS 15.0000 -54.5000 40 1001 hurdat_atl main 853 787 O_____________ hurdat_atl AL151970 15.0000 -54.5000 TS 40 1001 0 12 252
1970274N15306 1970 125 NA NA NOT_NAMED 1970-09-30 15:00:00 TS 14.8029 -55.1102 main 787 722 P_____________ AL151970 14.8029 -55.1102 TS 40 1001 0 12 251
1970274N15306 1970 125 NA NA NOT_NAMED 1970-09-30 18:00:00 TS 14.6000 -55.7000 40 1001 hurdat_atl main 722 665 O_____________ hurdat_atl AL151970 14.6000 -55.7000 TS 40 1001 0 12 250
1970274N15306 1970 125 NA NA NOT_NAMED 1970-09-30 21:00:00 TS 14.3923 -56.2574 main 657 601 P_____________ AL151970 14.3923 -56.2574 TS 37 1002 0 11 249
1970274N15306 1970 125 NA NA NOT_NAMED 1970-10-01 00:00:00 TS 14.2000 -56.8000 35 1004 hurdat_atl main 601 546 O_____________ hurdat_atl AL151970 14.2000 -56.8000 TS 35 1004 0 11 251
1970274N15306 1970 125 NA NA NOT_NAMED 1970-10-01 03:00:00 TS 14.0274 -57.3575 main 538 491 P_____________ AL151970 14.0274 -57.3575 TS 35 1003 0 11 254
1970274N15306 1970 125 NA NA NOT_NAMED 1970-10-01 06:00:00 TS 13.9000 -57.9000 35 1002 hurdat_atl main 491 447 O_____________ hurdat_atl AL151970 13.9000 -57.9000 TS 35 1002 0 11 259
1970274N15306 1970 125 NA NA NOT_NAMED 1970-10-01 09:00:00 TS 13.8275 -58.4299 main 447 415 P_____________ AL151970 13.8275 -58.4299 TS 35 1002 0 10 264
1970274N15306 1970 125 NA NA NOT_NAMED 1970-10-01 12:00:00 TS 13.8000 -58.9000 35 hurdat_atl main 415 393 I_____________ hurdat_atl AL151970 13.8000 -58.9000 TS 35 1003 0 8 267
1970274N15306 1970 125 NA NA NOT_NAMED 1970-10-01 15:00:00 TS 13.7849 -59.2950 main 393 379 P_____________ AL151970 13.7849 -59.2950 TS 35 1003 0 7 270
1970274N15306 1970 125 NA CS NOT_NAMED 1970-10-01 18:00:00 TS 13.8000 -59.6000 35 1004 hurdat_atl main 379 370 O_____________ hurdat_atl AL151970 13.8000 -59.6000 TS 35 1004 0 5 276
1970274N15306 1970 125 NA CS NOT_NAMED 1970-10-01 21:00:00 TS 13.8424 -59.8375 main 370 367 P_____________ AL151970 13.8424 -59.8375 TS 37 1002 0 4 284
1970274N15306 1970 125 NA CS NOT_NAMED 1970-10-02 00:00:00 TS 13.9000 -60.0000 40 1000 hurdat_atl main 374 371 O_____________ hurdat_atl AL151970 13.9000 -60.0000 TS 40 1000 0 3 300
1970274N15306 1970 125 NA CS NOT_NAMED 1970-10-02 03:00:00 TS 13.9799 -60.0849 main 382 379 P_____________ AL151970 13.9799 -60.0849 TS 40 999 0 2 297
1970274N15306 1970 125 NA CS NOT_NAMED 1970-10-02 06:00:00 TS 14.0000 -60.2000 40 999 hurdat_atl main 379 364 O_____________ hurdat_atl AL151970 14.0000 -60.2000 TS 40 999 0 4 255
1970274N15306 1970 125 NA CS NOT_NAMED 1970-10-02 09:00:00 TS 13.8800 -60.4626 main 362 336 P_____________ AL151970 13.8800 -60.4626 TS 40 999 0 7 243
1970274N15306 1970 125 NA CS NOT_NAMED 1970-10-02 12:00:00 TS 13.7000 -60.8000 40 999 hurdat_atl main 336 324 O_____________ hurdat_atl AL151970 13.7000 -60.8000 TS 40 999 0 7 243
1970274N15306 1970 125 NA CS NOT_NAMED 1970-10-02 15:00:00 TS 13.5425 -61.1425 main 313 302 P_____________ AL151970 13.5425 -61.1425 TS 40 0 7 246
1970274N15306 1970 125 NA CS NOT_NAMED 1970-10-02 18:00:00 TS 13.4000 -61.5000 40 hurdat_atl main 302 291 O_____________ hurdat_atl AL151970 13.4000 -61.5000 TS 40 0 7 248
1970274N15306 1970 125 NA CS NOT_NAMED 1970-10-02 21:00:00 TS 13.2700 -61.8500 main 291 279 P_____________ AL151970 13.2700 -61.8500 TS 37 0 7 254
1970274N15306 1970 125 NA CS NOT_NAMED 1970-10-03 00:00:00 TS 13.2000 -62.2000 35 hurdat_atl main 279 279 O_____________ hurdat_atl AL151970 13.2000 -62.2000 TS 35 0 7 265
1970274N15306 1970 125 NA CS NOT_NAMED 1970-10-03 03:00:00 TS 13.2124 -62.5425 main 279 279 P_____________ AL151970 13.2124 -62.5425 TS 35 0 7 278
1970274N15306 1970 125 NA CS NOT_NAMED 1970-10-03 06:00:00 TS 13.3000 -62.9000 35 1005 hurdat_atl main 291 291 O_____________ hurdat_atl AL151970 13.3000 -62.9000 TS 35 1005 0 8 288
1970274N15306 1970 125 NA CS NOT_NAMED 1970-10-03 09:00:00 TS 13.4499 -63.2849 main 303 303 P_____________ AL151970 13.4499 -63.2849 TS 35 1004 0 8 291
1970274N15306 1970 125 NA CS NOT_NAMED 1970-10-03 12:00:00 TS 13.6000 -63.7000 35 1003 hurdat_atl main 331 331 O_____________ hurdat_atl AL151970 13.6000 -63.7000 TS 35 1003 0 9 285
1970274N15306 1970 125 NA CS NOT_NAMED 1970-10-03 15:00:00 TS 13.6725 -64.1500 main 347 347 P_____________ AL151970 13.6725 -64.1500 TS 35 1003 0 9 277
1970274N15306 1970 125 NA CS NOT_NAMED 1970-10-03 18:00:00 TS 13.7000 -64.6000 35 1004 hurdat_atl main 349 349 O_____________ hurdat_atl AL151970 13.7000 -64.6000 TS 35 1004 0 8 272
1970274N15306 1970 125 NA CS NOT_NAMED 1970-10-03 21:00:00 TS 13.7074 -65.0075 main 357 353 P_____________ AL151970 13.7074 -65.0075 TS 32 -1 8 270
1970274N15306 1970 125 NA CS NOT_NAMED 1970-10-04 00:00:00 NR 13.7000 -65.4000 30 hurdat_atl main 353 347 O_____________ hurdat_atl AL151970 13.7000 -65.4000 DB 30 -3 8 269
1970274N15306 1970 125 NA CS NOT_NAMED 1970-10-04 03:00:00 NR 13.6999 -65.8000 main 347 347 P_____________ AL151970 13.6999 -65.8000 DB 30 -3 8 270
1970274N15306 1970 125 NA CS NOT_NAMED 1970-10-04 06:00:00 NR 13.7000 -66.2000 30 hurdat_atl main 347 341 O_____________ hurdat_atl AL151970 13.7000 -66.2000 DB 30 -3 8 269
1970274N15306 1970 125 NA CS NOT_NAMED 1970-10-04 09:00:00 NR 13.6924 -66.6000 main 341 318 P_____________ AL151970 13.6924 -66.6000 DB 30 -3 8 270
1970274N15306 1970 125 NA CS NOT_NAMED 1970-10-04 12:00:00 NR 13.7000 -67.0000 30 hurdat_atl main 318 298 O_____________ hurdat_atl AL151970 13.7000 -67.0000 DB 30 -3 8 273
1970274N15306 1970 125 NA CS NOT_NAMED 1970-10-04 15:00:00 NR 13.7350 -67.4075 main 298 289 P_____________ AL151970 13.7350 -67.4075 DB 30 -3 8 277
1970274N15306 1970 125 NA CS NOT_NAMED 1970-10-04 18:00:00 NR 13.8000 -67.8000 30 hurdat_atl main 289 273 O_____________ hurdat_atl AL151970 13.8000 -67.8000 DB 30 -3 8 282
1970274N15306 1970 125 NA CS NOT_NAMED 1970-10-04 21:00:00 NR 13.8925 -68.1725 main 273 261 P_____________ AL151970 13.8925 -68.1725 DB 30 -3 7 286
1970274N15306 1970 125 NA CS NOT_NAMED 1970-10-05 00:00:00 TS 14.0000 -68.5000 30 hurdat_atl main 261 253 O_____________ hurdat_atl AL151970 14.0000 -68.5000 TD 30 -1 6 289
1970274N15306 1970 125 NA CS NOT_NAMED 1970-10-05 03:00:00 TS 14.0924 -68.7725 main 253 248 P_____________ AL151970 14.0924 -68.7725 TD 30 -1 5 292
1970274N15306 1970 125 NA CS NOT_NAMED 1970-10-05 06:00:00 TS 14.2000 -69.0000 30 hurdat_atl main 254 250 O_____________ hurdat_atl AL151970 14.2000 -69.0000 TD 30 -1 5 299
1970274N15306 1970 125 NA CS NOT_NAMED 1970-10-05 09:00:00 TS 14.3350 -69.2150 main 257 257 P_____________ AL151970 14.3350 -69.2150 TD 32 -1 5 308
1970274N15306 1970 125 NA CS NOT_NAMED 1970-10-05 12:00:00 TS 14.5000 -69.4000 35 hurdat_atl main 274 274 O_____________ hurdat_atl AL151970 14.5000 -69.4000 TS 35 0 5 317
1970274N15306 1970 125 NA CS NOT_NAMED 1970-10-05 15:00:00 TS 14.6925 -69.5650 main 292 292 P_____________ AL151970 14.6925 -69.5650 TS 35 0 5 324
1970274N15306 1970 125 NA CS NOT_NAMED 1970-10-05 18:00:00 TS 14.9000 -69.7000 35 1004 hurdat_atl main 314 314 O_____________ hurdat_atl AL151970 14.9000 -69.7000 TS 35 1004 0 5 330
1970274N15306 1970 125 NA CS NOT_NAMED 1970-10-05 21:00:00 TS 15.1075 -69.8150 main 327 303 P_____________ AL151970 15.1075 -69.8150 TS 35 1004 0 4 334
1970274N15306 1970 125 NA CS NOT_NAMED 1970-10-06 00:00:00 TS 15.3000 -69.9000 35 1004 hurdat_atl main 303 278 O_____________ hurdat_atl AL151970 15.3000 -69.9000 TS 35 1004 0 4 338
1970274N15306 1970 125 NA CS NOT_NAMED 1970-10-06 03:00:00 TS 15.4650 -69.9650 main 278 269 P_____________ AL151970 15.4650 -69.9650 TS 35 1004 0 3 343
1970274N15306 1970 125 NA CS NOT_NAMED 1970-10-06 06:00:00 TS 15.6000 -70.0000 35 hurdat_atl main 269 259 I_____________ hurdat_atl AL151970 15.6000 -70.0000 TS 35 1004 0 3 357
1970274N15306 1970 125 NA CS NOT_NAMED 1970-10-06 09:00:00 TS 15.7300 -69.9925 main 259 250 P_____________ AL151970 15.7300 -69.9925 TS 35 1004 0 2 8
1970274N15306 1970 125 NA CS NOT_NAMED 1970-10-06 12:00:00 TS 15.8000 -70.0000 35 1005 hurdat_atl main 250 244 O_____________ hurdat_atl AL151970 15.8000 -70.0000 TS 35 1005 0 1 291
1970274N15306 1970 125 NA CS NOT_NAMED 1970-10-06 15:00:00 TS 15.7725 -70.1075 main 244 244 P_____________ AL151970 15.7725 -70.1075 TS 35 1004 0 2 243
1970274N15306 1970 125 NA CS NOT_NAMED 1970-10-06 18:00:00 TS 15.7000 -70.2000 35 1004 hurdat_atl main 248 248 O_____________ hurdat_atl AL151970 15.7000 -70.2000 TS 35 1004 0 1 205
1970274N15306 1970 125 NA CS NOT_NAMED 1970-10-06 21:00:00 TS 15.6650 -70.1725 main 248 248 P_____________ AL151970 15.6650 -70.1725 TS 35 1002 0 1 137
1970274N15306 1970 125 NA CS NOT_NAMED 1970-10-07 00:00:00 TS 15.6000 -70.1000 35 1000 hurdat_atl main 263 263 O_____________ hurdat_atl AL151970 15.6000 -70.1000 TS 35 1000 0 3 145
1970274N15306 1970 125 NA CS NOT_NAMED 1970-10-07 03:00:00 TS 15.4350 -70.0050 main 287 287 P_____________ AL151970 15.4350 -70.0050 TS 35 1001 0 3 163
1970274N15306 1970 125 NA CS NOT_NAMED 1970-10-07 06:00:00 TS 15.3000 -70.0000 35 1002 hurdat_atl main 297 287 O_____________ hurdat_atl AL151970 15.3000 -70.0000 TS 35 1002 0 3 232
1970274N15306 1970 125 NA CS NOT_NAMED 1970-10-07 09:00:00 TS 15.2751 -70.2201 main 287 264 P_____________ AL151970 15.2751 -70.2201 TS 32 1002 -1 5 282
1970274N15306 1970 125 NA CS NOT_NAMED 1970-10-07 12:00:00 TS 15.4000 -70.5000 30 1003 hurdat_atl main 264 225 O_____________ hurdat_atl AL151970 15.4000 -70.5000 TD 30 1003 -1 6 314
1970274N15306 1970 125 NA CS NOT_NAMED 1970-10-07 15:00:00 TS 15.6975 -70.6799 main 225 179 P_____________ AL151970 15.6975 -70.6799 TD 30 1003 -1 8 338
1970274N15306 1970 125 NA CS NOT_NAMED 1970-10-07 18:00:00 TS 16.1000 -70.8000 30 1004 hurdat_atl main 179 134 O_____________ hurdat_atl AL151970 16.1000 -70.8000 TD 30 1004 -1 8 346
1970274N15306 1970 125 NA CS NOT_NAMED 1970-10-07 21:00:00 TS 16.4850 -70.8800 main 134 94 P_____________ AL151970 16.4850 -70.8800 TD 30 1004 -1 8 353
1970274N15306 1970 125 NA CS NOT_NAMED 1970-10-08 00:00:00 TS 16.9000 -70.9000 30 1004 hurdat_atl main 94 62 O_____________ hurdat_atl AL151970 16.9000 -70.9000 TD 30 1004 -1 9 2
1970274N15306 1970 125 NA CS NOT_NAMED 1970-10-08 03:00:00 TS 17.3350 -70.8725 main 62 38 P_____________ AL151970 17.3350 -70.8725 TD 30 -1 9 6
1970274N15306 1970 125 NA CS NOT_NAMED 1970-10-08 06:00:00 TS 17.8000 -70.8000 30 hurdat_atl main 38 10 O_____________ hurdat_atl AL151970 17.8000 -70.8000 TD 30 -1 10 8
1970274N15306 1970 125 NA CS NOT_NAMED 1970-10-08 09:00:00 TS 18.3000 -70.7224 main 10 0 P_____________ AL151970 18.3000 -70.7224 TD 27 -1 10 11
1970274N15306 1970 125 NA NA NOT_NAMED 1970-10-08 12:00:00 TS 18.8000 -70.6000 25 hurdat_atl main 0 0 O_____________ hurdat_atl AL151970 18.8000 -70.6000 TD 25 -1 10 15
1970274N15306 1970 125 NA NA NOT_NAMED 1970-10-08 15:00:00 TS 19.2649 -70.4448 main 0 0 P_____________ AL151970 19.2649 -70.4448 TD 25 -1 10 23
1970274N15306 1970 125 NA NA NOT_NAMED 1970-10-08 18:00:00 TS 19.7000 -70.2000 25 hurdat_atl main 11 11 O_____________ hurdat_atl AL151970 19.7000 -70.2000 TD 25 -1 10 34
1970274N15306 1970 125 NA NA NOT_NAMED 1970-10-08 21:00:00 TS 20.1150 -69.8449 main 59 59 P_____________ AL151970 20.1150 -69.8449 TD 25 -1 11 43
1970274N15306 1970 125 NA NA NOT_NAMED 1970-10-09 00:00:00 TS 20.5000 -69.4000 25 hurdat_atl main 118 118 O_____________ hurdat_atl AL151970 20.5000 -69.4000 TD 25 -1 11 50
1970274N15306 1970 125 NA NA NOT_NAMED 1970-10-09 03:00:00 TS 20.8499 -68.9222 main 172 172 P_____________ AL151970 20.8499 -68.9222 TD 25 -1 12 53
1970274N15306 1970 125 NA NA NOT_NAMED 1970-10-09 06:00:00 TS 21.2000 -68.4000 25 hurdat_atl main 232 232 O_____________ hurdat_atl AL151970 21.2000 -68.4000 TD 25 -1 12 54
1970274N15306 1970 125 NA NA NOT_NAMED 1970-10-09 09:00:00 TS 21.5773 -67.8646 main 295 295 P_____________ AL151970 21.5773 -67.8646 TD 27 -1 13 52
1970274N15306 1970 125 NA NA NOT_NAMED 1970-10-09 12:00:00 TS 22.0000 -67.3000 30 hurdat_atl main 366 366 O_____________ hurdat_atl AL151970 22.0000 -67.3000 TD 30 -1 14 50
1970274N15306 1970 125 NA NA NOT_NAMED 1970-10-09 15:00:00 TS 22.4773 -66.7146 main 448 448 P_____________ AL151970 22.4773 -66.7146 TD 30 -1 15 48
1970274N15306 1970 125 NA NA NOT_NAMED 1970-10-09 18:00:00 TS 23.0000 -66.1000 30 hurdat_atl main 514 514 O_____________ hurdat_atl AL151970 23.0000 -66.1000 TD 30 -1 16 47
1970274N15306 1970 125 NA NA NOT_NAMED 1970-10-09 21:00:00 TS 23.5345 -65.4792 main 570 570 P_____________ AL151970 23.5345 -65.4792 TD 30 -1 16 47
1970274N15306 1970 125 NA NA NOT_NAMED 1970-10-10 00:00:00 TS 24.1000 -64.8000 30 hurdat_atl main 642 642 O_____________ hurdat_atl AL151970 24.1000 -64.8000 TD 30 -1 18 49
1970274N15306 1970 125 NA NA NOT_NAMED 1970-10-10 03:00:00 TS 24.6924 -64.0221 main 723 723 P_____________ AL151970 24.6924 -64.0221 TD 32 -1 19 50
1970274N15306 1970 125 NA NA NOT_NAMED 1970-10-10 06:00:00 TS 25.3000 -63.2000 35 hurdat_atl main 810 810 O_____________ hurdat_atl AL151970 25.3000 -63.2000 TS 35 0 19 50
1970274N15306 1970 125 NA NA NOT_NAMED 1970-10-10 09:00:00 TS 25.9222 -62.3923 main 900 900 P_____________ AL151970 25.9222 -62.3923 TS 37 0 19 50
1970274N15306 1970 125 NA NA NOT_NAMED 1970-10-10 12:00:00 TS 26.5000 -61.6000 40 1000 hurdat_atl main 994 994 O_____________ hurdat_atl AL151970 26.5000 -61.6000 TS 40 1000 0 17 50
1970274N15306 1970 125 NA NA NOT_NAMED 1970-10-10 15:00:00 TS 27.0307 -60.9097 main 1075 1075 P_____________ AL151970 27.0307 -60.9097 TS 40 0 16 56
1970274N15306 1970 125 NA NA NOT_NAMED 1970-10-10 18:00:00 TS 27.4000 -60.1000 40 hurdat_atl main 1152 1152 O_____________ hurdat_atl AL151970 27.4000 -60.1000 TS 40 0 18 74
1970274N15306 1970 125 NA NA NOT_NAMED 1970-10-10 21:00:00 TS 27.5173 -58.9887 main 1220 1220 P_____________ AL151970 27.5173 -58.9887 TS 40 0 21 87
1970274N15306 1970 125 NA NA NOT_NAMED 1970-10-11 00:00:00 TS 27.5000 -57.7000 40 hurdat_atl main 1298 1298 O_____________ hurdat_atl AL151970 27.5000 -57.7000 TS 40 0 23 90
1970274N15306 1970 125 NA NA NOT_NAMED 1970-10-11 03:00:00 TS 27.5136 -56.3949 main 1384 1384 P_____________ AL151970 27.5136 -56.3949 TS 37 0 24 90
1970274N15306 1970 125 NA NA NOT_NAMED 1970-10-11 06:00:00 NR 27.5000 -55.0000 35 hurdat_atl main 1485 1485 O_____________ hurdat_atl AL151970 27.5000 -55.0000 DB 35 -3 26 91
1970274N15306 1970 125 NA NA NOT_NAMED 1970-10-11 09:00:00 NR 27.4571 -53.5073 main 1600 1600 P_____________ AL151970 27.4571 -53.5073 DB 32 -3 27 92
1970274N15306 1970 125 NA NA NOT_NAMED 1970-10-11 12:00:00 NR 27.4000 -52.0000 30 hurdat_atl main 1715 1715 O_____________ hurdat_atl AL151970 27.4000 -52.0000 DB 30 -3 26 92
1970274N15306 1970 125 NA NA NOT_NAMED 1970-10-11 15:00:00 NR 27.3484 -50.5777 main 1827 1827 P_____________ AL151970 27.3484 -50.5777 DB 30 -3 25 92
1970274N15306 1970 125 NA NA NOT_NAMED 1970-10-11 18:00:00 NR 27.3000 -49.2000 30 hurdat_atl main 1949 1949 O_____________ hurdat_atl AL151970 27.3000 -49.2000 DB 30 -3 24 93
1970274N15306 1970 125 NA NA NOT_NAMED 1970-10-11 21:00:00 NR 27.2414 -47.8274 main 2068 2068 P_____________ AL151970 27.2414 -47.8274 DB 30 -3 24 92
1970274N15306 1970 125 NA NA NOT_NAMED 1970-10-12 00:00:00 NR 27.2000 -46.5000 30 hurdat_atl main 2186 2186 O_____________ hurdat_atl AL151970 27.2000 -46.5000 DB 30 -3 23 92
1970274N15306 1970 125 NA NA NOT_NAMED 1970-10-12 03:00:00 NR 27.1760 -45.2348 main 2271 2271 P_____________ AL151970 27.1760 -45.2348 DB 30 -3 22 90
1970274N15306 1970 125 NA NA NOT_NAMED 1970-10-12 06:00:00 NR 27.2000 -44.0000 30 hurdat_atl main 2305 2305 O_____________ hurdat_atl AL151970 27.2000 -44.0000 DB 30 -3 22 88
1970274N15306 1970 125 NA NA NOT_NAMED 1970-10-12 09:00:00 NR 27.2693 -42.7349 main 2337 2337 P_____________ AL151970 27.2693 -42.7349 DB 30 -3 22 85
1970274N15306 1970 125 NA NA NOT_NAMED 1970-10-12 12:00:00 NR 27.4000 -41.5000 30 hurdat_atl main 2370 2313 O_____________ hurdat_atl AL151970 27.4000 -41.5000 DB 30 -3 22 82
1970274N15306 1970 125 NA NA NOT_NAMED 1970-10-12 15:00:00 NR 27.5764 -40.3274 main 2303 2203 P_____________ AL151970 27.5764 -40.3274 DB 30 -3 21 79
1970274N15306 1970 125 NA NA NOT_NAMED 1970-10-12 18:00:00 ET 27.8000 -39.2000 30 hurdat_atl main 2193 2083 O_____________ hurdat_atl AL151970 27.8000 -39.2000 EX 30 -4 20 77
1970274N15306 1970 125 NA NA NOT_NAMED 1970-10-12 21:00:00 ET 28.0418 -38.0773 main 2083 1982 P_____________ AL151970 28.0418 -38.0773 EX 30 -4 20 76
1970274N15306 1970 125 NA NA NOT_NAMED 1970-10-13 00:00:00 ET 28.3000 -37.0000 30 hurdat_atl main 1973 1873 O_____________ hurdat_atl AL151970 28.3000 -37.0000 EX 30 -4 19 75
1970274N15306 1970 125 NA NA NOT_NAMED 1970-10-13 03:00:00 ET 28.5414 -35.9842 main 1873 1784 P_____________ AL151970 28.5414 -35.9842 EX 32 -4 18 74
1970274N15306 1970 125 NA NA NOT_NAMED 1970-10-13 06:00:00 ET 28.8000 -35.0000 35 hurdat_atl main 1774 1686 O_____________ hurdat_atl AL151970 28.8000 -35.0000 EX 35 -4 18 73
1970274N15306 1970 125 NA NA NOT_NAMED 1970-10-13 09:00:00 ET 29.0768 -33.9992 main 1676 1588 P_____________ AL151970 29.0768 -33.9992 EX 35 -4 18 71
1970274N15306 1970 125 NA NA NOT_NAMED 1970-10-13 12:00:00 ET 29.4000 -33.0000 35 hurdat_atl main 1579 1493 O_____________ hurdat_atl AL151970 29.4000 -33.0000 EX 35 -4 19 68
1970274N15306 1970 125 NA NA NOT_NAMED 1970-10-13 15:00:00 ET 29.7614 -32.0137 main 1484 1399 P_____________ AL151970 29.7614 -32.0137 EX 35 -4 19 65
1970274N15306 1970 125 NA NA NOT_NAMED 1970-10-13 18:00:00 ET 30.2000 -31.0000 35 hurdat_atl main 1391 1302 O_____________ hurdat_atl AL151970 30.2000 -31.0000 EX 35 -4 20 62
1970274N15306 1970 125 NA NA NOT_NAMED 1970-10-13 21:00:00 ET 30.7120 -29.9141 main 1293 1209 P_____________ AL151970 30.7120 -29.9141 EX 35 -4 22 60
1970274N15306 1970 125 NA NA NOT_NAMED 1970-10-14 00:00:00 ET 31.3000 -28.8000 35 hurdat_atl main 1203 1120 O_____________ hurdat_atl AL151970 31.3000 -28.8000 EX 35 -4 23 57
1970274N15306 1970 125 NA NA NOT_NAMED 1970-10-14 03:00:00 ET 31.9652 -27.6485 main 1115 1056 P_____________ AL151970 31.9652 -27.6485 EX 35 -4 23 55
1970274N15306 1970 125 NA NA NOT_NAMED 1970-10-14 06:00:00 ET 32.6000 -26.6000 35 hurdat_atl main 1052 1011 O_____________ hurdat_atl AL151970 32.6000 -26.6000 EX 35 -4 19 54
1970274N15306 1970 125 NA NA NOT_NAMED 1970-10-14 09:00:00 ET 33.1013 -25.7734 main 1011 980 P_____________ AL151970 33.1013 -25.7734 EX 37 -4 15 54
1970274N15306 1970 125 NA NA NOT_NAMED 1970-10-14 12:00:00 ET 33.5000 -25.1000 40 hurdat_atl main 980 954 O_____________ hurdat_atl AL151970 33.5000 -25.1000 EX 40 -4 13 56
1970274N15306 1970 125 NA NA NOT_NAMED 1970-10-14 15:00:00 ET 33.8370 -24.4618 main 954 933 P_____________ AL151970 33.8370 -24.4618 EX 40 -4 12 59
1970274N15306 1970 125 NA NA NOT_NAMED 1970-10-14 18:00:00 ET 34.1000 -23.9000 40 hurdat_atl main 933 914 O_____________ hurdat_atl AL151970 34.1000 -23.9000 EX 40 -4 10 62
1970274N15306 1970 125 NA NA NOT_NAMED 1970-10-14 21:00:00 ET 34.3148 -23.3695 main 916 898 P_____________ AL151970 34.3148 -23.3695 EX 40 -4 9 64
1970274N15306 1970 125 NA NA NOT_NAMED 1970-10-15 00:00:00 ET 34.5000 -22.9000 40 hurdat_atl main 900 891 O_____________ hurdat_atl AL151970 34.5000 -22.9000 EX 40 -4 8 62
1970274N15306 1970 125 NA NA NOT_NAMED 1970-10-15 03:00:00 ET 34.7073 -22.4774 main 894 886 P_____________ AL151970 34.7073 -22.4774 EX 40 -4 8 59
1970274N15306 1970 125 NA NA NOT_NAMED 1970-10-15 06:00:00 ET 34.9000 -22.1000 40 hurdat_atl main 890 883 O_____________ hurdat_atl AL151970 34.9000 -22.1000 EX 40 -4 7 60
1970274N15306 1970 125 NA NA NOT_NAMED 1970-10-15 09:00:00 ET 35.0498 -21.7421 main 878 878 P_____________ AL151970 35.0498 -21.7421 EX 42 -4 6 62
1970274N15306 1970 125 NA NA NOT_NAMED 1970-10-15 12:00:00 SS 35.2000 -21.4000 45 hurdat_atl main 883 878 O_____________ hurdat_atl AL151970 35.2000 -21.4000 SS 45 -2 7 60
1970274N15306 1970 125 NA NA NOT_NAMED 1970-10-15 15:00:00 SS 35.3926 -21.0276 main 882 878 P_____________ AL151970 35.3926 -21.0276 SS 45 -2 7 55
1970274N15306 1970 125 NA NA NOT_NAMED 1970-10-15 18:00:00 SS 35.6000 -20.7000 45 997 hurdat_atl main 888 884 O_____________ hurdat_atl AL151970 35.6000 -20.7000 SS 45 997 -2 6 49
1970274N15306 1970 125 NA NA NOT_NAMED 1970-10-15 21:00:00 SS 35.7924 -20.4697 main 900 896 P_____________ AL151970 35.7924 -20.4697 SS 45 997 -2 5 39
1970274N15306 1970 125 NA NA NOT_NAMED 1970-10-16 00:00:00 SS 36.0000 -20.3000 45 998 hurdat_atl main 912 912 O_____________ hurdat_atl AL151970 36.0000 -20.3000 SS 45 998 -2 6 32
1970274N15306 1970 125 NA NA NOT_NAMED 1970-10-16 03:00:00 SS 36.2650 -20.1052 main 936 936 P_____________ AL151970 36.2650 -20.1052 SS 45 997 -2 6 26
1970274N15306 1970 125 NA NA NOT_NAMED 1970-10-16 06:00:00 SS 36.5000 -20.0000 45 hurdat_atl main 953 952 I_____________ hurdat_atl AL151970 36.5000 -20.0000 SS 45 997 -2 4 13
1970274N15306 1970 125 NA NA NOT_NAMED 1970-10-16 09:00:00 SS 36.6146 -20.0027 main 952 952 P_____________ AL151970 36.6146 -20.0027 SS 45 997 -2 3 321
1970274N15306 1970 125 NA NA NOT_NAMED 1970-10-16 12:00:00 SS 36.7000 -20.2000 45 997 hurdat_atl main 966 966 O_____________ hurdat_atl AL151970 36.7000 -20.2000 SS 45 997 -2 5 297
1970274N15306 1970 125 NA NA NOT_NAMED 1970-10-16 15:00:00 SS 36.8573 -20.6021 main 994 994 P_____________ AL151970 36.8573 -20.6021 SS 47 995 -2 9 291
1970274N15306 1970 125 NA NA NOT_NAMED 1970-10-16 18:00:00 SS 37.0000 -21.2000 50 hurdat_atl main 1042 1042 I_____________ hurdat_atl AL151970 37.0000 -21.2000 SS 50 994 -2 11 283
1970274N15306 1970 125 NA NA NOT_NAMED 1970-10-16 21:00:00 SS 37.1025 -21.9042 main 1087 1087 P_____________ AL151970 37.1025 -21.9042 SS 55 993 -2 12 275
1970274N15306 1970 125 NA NA NOT_NAMED 1970-10-17 00:00:00 TS 37.1000 -22.7000 60 992 hurdat_atl main 1124 1124 O_____________ hurdat_atl AL151970 37.1000 -22.7000 TS 60 992 0 13 263
1970274N15306 1970 125 NA NA NOT_NAMED 1970-10-17 03:00:00 TS 36.9447 -23.5006 main 1144 1144 P_____________ AL151970 36.9447 -23.5006 TS 62 990 0 13 253
1970274N15306 1970 125 NA NA NOT_NAMED 1970-10-17 06:00:00 TS 36.7000 -24.3000 65 989 hurdat_atl main 1169 1169 O_____________ hurdat_atl AL151970 36.7000 -24.3000 HU 65 989 1 13 248
1970274N15306 1970 125 NA NA NOT_NAMED 1970-10-17 09:00:00 TS 36.4491 -25.0423 main 1185 1185 P_____________ AL151970 36.4491 -25.0423 HU 65 1 13 247
1970274N15306 1970 125 NA NA NOT_NAMED 1970-10-17 12:00:00 TS 36.2000 -25.8000 65 hurdat_atl main 1219 1219 O_____________ hurdat_atl AL151970 36.2000 -25.8000 HU 65 1 14 250
1970274N15306 1970 125 NA NA NOT_NAMED 1970-10-17 15:00:00 TS 35.9847 -26.6347 main 1257 1257 P_____________ AL151970 35.9847 -26.6347 HU 67 1 14 254
1970274N15306 1970 125 NA NA NOT_NAMED 1970-10-17 18:00:00 TS 35.8000 -27.5000 70 hurdat_atl main 1307 1307 O_____________ hurdat_atl AL151970 35.8000 -27.5000 HU 70 1 14 256
1970274N15306 1970 125 NA NA NOT_NAMED 1970-10-17 21:00:00 TS 35.6272 -28.3649 main 1360 1360 P_____________ AL151970 35.6272 -28.3649 HU 70 1 14 258
1970274N15306 1970 125 NA NA NOT_NAMED 1970-10-18 00:00:00 TS 35.5000 -29.2000 70 hurdat_atl main 1416 1416 O_____________ hurdat_atl AL151970 35.5000 -29.2000 HU 70 1 13 261
1970274N15306 1970 125 NA NA NOT_NAMED 1970-10-18 03:00:00 TS 35.4269 -29.9721 main 1473 1473 P_____________ AL151970 35.4269 -29.9721 HU 70 1 12 265
1970274N15306 1970 125 NA NA NOT_NAMED 1970-10-18 06:00:00 TS 35.4000 -30.7000 70 hurdat_atl main 1529 1529 O_____________ hurdat_atl AL151970 35.4000 -30.7000 HU 70 1 12 268
1970274N15306 1970 125 NA NA NOT_NAMED 1970-10-18 09:00:00 TS 35.3772 -31.4226 main 1585 1585 P_____________ AL151970 35.3772 -31.4226 HU 72 1 11 270
1970274N15306 1970 125 NA NA NOT_NAMED 1970-10-18 12:00:00 TS 35.4000 -32.1000 75 hurdat_atl main 1642 1642 O_____________ hurdat_atl AL151970 35.4000 -32.1000 HU 75 1 11 275
1970274N15306 1970 125 NA NA NOT_NAMED 1970-10-18 15:00:00 TS 35.4697 -32.7301 main 1696 1696 P_____________ AL151970 35.4697 -32.7301 HU 75 1 10 282
1970274N15306 1970 125 NA NA NOT_NAMED 1970-10-18 18:00:00 TS 35.6000 -33.3000 75 hurdat_atl main 1751 1751 O_____________ hurdat_atl AL151970 35.6000 -33.3000 HU 75 1 9 289
1970274N15306 1970 125 NA NA NOT_NAMED 1970-10-18 21:00:00 TS 35.7773 -33.8300 main 1801 1801 P_____________ AL151970 35.7773 -33.8300 HU 75 1 9 296
1970274N15306 1970 125 NA NA NOT_NAMED 1970-10-19 00:00:00 TS 36.0000 -34.3000 75 hurdat_atl main 1851 1851 O_____________ hurdat_atl AL151970 36.0000 -34.3000 HU 75 1 8 302
1970274N15306 1970 125 NA NA NOT_NAMED 1970-10-19 03:00:00 TS 36.2272 -34.7155 main 1892 1865 P_____________ AL151970 36.2272 -34.7155 HU 75 1 8 308
1970274N15306 1970 125 NA NA NOT_NAMED 1970-10-19 06:00:00 TS 36.5000 -35.1000 75 hurdat_atl main 1865 1817 O_____________ hurdat_atl AL151970 36.5000 -35.1000 HU 75 1 9 314
1970274N15306 1970 125 NA NA NOT_NAMED 1970-10-19 09:00:00 TS 36.8274 -35.5003 main 1817 1760 P_____________ AL151970 36.8274 -35.5003 HU 75 1 9 318
1970274N15306 1970 125 NA NA NOT_NAMED 1970-10-19 12:00:00 TS 37.2000 -35.9000 75 hurdat_atl main 1760 1704 O_____________ hurdat_atl AL151970 37.2000 -35.9000 HU 75 1 10 320
1970274N15306 1970 125 NA NA NOT_NAMED 1970-10-19 15:00:00 TS 37.5924 -36.3077 main 1704 1648 P_____________ AL151970 37.5924 -36.3077 HU 75 1 10 322
1970274N15306 1970 125 NA NA NOT_NAMED 1970-10-19 18:00:00 TS 38.0000 -36.7000 75 hurdat_atl main 1648 1599 O_____________ hurdat_atl AL151970 38.0000 -36.7000 HU 75 1 10 323
1970274N15306 1970 125 NA NA NOT_NAMED 1970-10-19 21:00:00 TS 38.3849 -37.0656 main 1593 1544 P_____________ AL151970 38.3849 -37.0656 HU 72 1 10 326
1970274N15306 1970 125 NA NA NOT_NAMED 1970-10-20 00:00:00 TS 38.8000 -37.4000 70 hurdat_atl main 1544 1489 O_____________ hurdat_atl AL151970 38.8000 -37.4000 HU 70 1 10 331
1970274N15306 1970 125 NA NA NOT_NAMED 1970-10-20 03:00:00 TS 39.2924 -37.7151 main 1489 1434 P_____________ AL151970 39.2924 -37.7151 HU 67 1 11 335
1970274N15306 1970 125 NA NA NOT_NAMED 1970-10-20 06:00:00 TS 39.8000 -38.0000 65 hurdat_atl main 1434 1387 O_____________ hurdat_atl AL151970 39.8000 -38.0000 HU 65 1 11 336
1970274N15306 1970 125 NA NA NOT_NAMED 1970-10-20 09:00:00 TS 40.2500 -38.2728 main 1387 1340 P_____________ AL151970 40.2500 -38.2728 HU 62 0 10 337
1970274N15306 1970 125 NA NA NOT_NAMED 1970-10-20 12:00:00 TS 40.7000 -38.5000 60 hurdat_atl main 1340 1295 O_____________ hurdat_atl AL151970 40.7000 -38.5000 TS 60 0 10 342
1970274N15306 1970 125 NA NA NOT_NAMED 1970-10-20 15:00:00 TS 41.1849 -38.6729 main 1295 1258 P_____________ AL151970 41.1849 -38.6729 TS 57 0 10 347
1970274N15306 1970 125 NA NA NOT_NAMED 1970-10-20 18:00:00 TS 41.7000 -38.8000 55 hurdat_atl main 1258 1223 O_____________ hurdat_atl AL151970 41.7000 -38.8000 TS 55 0 10 349
1970274N15306 1970 125 NA NA NOT_NAMED 1970-10-20 21:00:00 TS 42.2125 -38.9370 main 1223 1181 P_____________ AL151970 42.2125 -38.9370 TS 52 0 11 352
1970274N15306 1970 125 NA NA NOT_NAMED 1970-10-21 00:00:00 ET 42.8000 -39.0000 50 hurdat_atl main 1181 1148 O_____________ hurdat_atl AL151970 42.8000 -39.0000 EX 50 -4 13 359
1970274N15306 1970 125 NA NA NOT_NAMED 1970-10-21 03:00:00 ET 43.4673 -38.9732 main 1143 1121 P_____________ AL151970 43.4673 -38.9732 EX 50 -4 15 5
1970274N15306 1970 125 NA NA NOT_NAMED 1970-10-21 06:00:00 ET 44.3000 -38.8000 50 hurdat_atl main 1119 1098 O_____________ hurdat_atl AL151970 44.3000 -38.8000 EX 50 -4 18 10
1970274N15306 1970 125 NA NA NOT_NAMED 1970-10-21 09:00:00 ET 45.2865 -38.5281 main 1102 1095 P_____________ AL151970 45.2865 -38.5281 EX 50 -4 23 14
1970274N15306 1970 125 NA NA NOT_NAMED 1970-10-21 12:00:00 ET 46.5000 -38.0000 50 hurdat_atl main 1106 1104 O_____________ hurdat_atl AL151970 46.5000 -38.0000 EX 50 -4 28 20
1970274N15306 1970 125 NA NA NOT_NAMED 1970-10-21 15:00:00 ET 47.9403 -37.1276 main 1153 1153 P_____________ AL151970 47.9403 -37.1276 EX 47 -4 33 24
1970274N15306 1970 125 NA NA NOT_NAMED 1970-10-21 18:00:00 ET 49.5000 -36.0000 45 hurdat_atl main 1232 1139 O_____________ hurdat_atl AL151970 49.5000 -36.0000 EX 45 -4 34 26
1970274N15306 1970 125 NA NA NOT_NAMED 1970-10-21 21:00:00 ET 50.9999 -34.7830 main 1132 1031 P_____________ AL151970 50.9999 -34.7830 EX 42 -4 34 28
1970274N15306 1970 125 NA NA NOT_NAMED 1970-10-22 00:00:00 ET 52.5000 -33.5000 40 hurdat_atl main 1025 943 O_____________ hurdat_atl AL151970 52.5000 -33.5000 EX 40 -4 34 27
1970274N15306 1970 125 NA NA NOT_NAMED 1970-10-22 03:00:00 ET 54.0017 -32.2537 main 934 876 P_____________ AL151970 54.0017 -32.2537 EX 40 -4 33 26
1970274N15306 1970 125 NA NA NOT_NAMED 1970-10-22 06:00:00 ET 55.5000 -31.0000 40 hurdat_atl main 873 O_____________ hurdat_atl AL151970 55.5000 -31.0000 EX 40 -4 33 25

About IBTrACS Database

This database is a web-friendly format of International Best Track Archive for Climate Stewardship (IBTrACS), a global best track data archive curated by NOAA dating back to 1842.

Updated: 2022-05-26